sensor_id;sensor_type;location;lat;lon;timestamp;P1;durP1;ratioP1;P2;durP2;ratioP2
68872;SDS011;55907;50.806;12.882;2023-07-30T00:01:54;695.3;;;637.3;;
68872;SDS011;55907;50.806;12.882;2023-07-30T00:04:56;697.8;;;639.1;;
68872;SDS011;55907;50.806;12.882;2023-07-30T00:07:57;689.2;;;630.8;;
68872;SDS011;55907;50.806;12.882;2023-07-30T00:10:58;693.7;;;635.0;;
68872;SDS011;55907;50.806;12.882;2023-07-30T00:14:00;693.8;;;635.3;;
68872;SDS011;55907;50.806;12.882;2023-07-30T00:17:01;696.1;;;637.2;;
68872;SDS011;55907;50.806;12.882;2023-07-30T00:20:03;697.6;;;638.6;;
68872;SDS011;55907;50.806;12.882;2023-07-30T00:23:04;695.9;;;637.5;;
68872;SDS011;55907;50.806;12.882;2023-07-30T00:26:06;693.4;;;635.4;;
68872;SDS011;55907;50.806;12.882;2023-07-30T00:29:07;691.3;;;633.4;;
68872;SDS011;55907;50.806;12.882;2023-07-30T00:32:09;693.7;;;635.5;;
68872;SDS011;55907;50.806;12.882;2023-07-30T00:35:10;702.9;;;643.8;;
68872;SDS011;55907;50.806;12.882;2023-07-30T00:38:11;707.3;;;647.5;;
68872;SDS011;55907;50.806;12.882;2023-07-30T00:41:13;700.2;;;640.5;;
68872;SDS011;55907;50.806;12.882;2023-07-30T00:44:14;715.7;;;654.1;;
68872;SDS011;55907;50.806;12.882;2023-07-30T00:47:16;672.0;;;612.9;;
68872;SDS011;55907;50.806;12.882;2023-07-30T00:50:17;695.3;;;633.9;;
68872;SDS011;55907;50.806;12.882;2023-07-30T00:53:19;690.3;;;628.5;;
68872;SDS011;55907;50.806;12.882;2023-07-30T00:56:20;706.7;;;643.0;;
68872;SDS011;55907;50.806;12.882;2023-07-30T00:59:22;713.0;;;647.4;;
68872;SDS011;55907;50.806;12.882;2023-07-30T01:02:23;707.2;;;640.8;;
68872;SDS011;55907;50.806;12.882;2023-07-30T01:05:25;714.2;;;646.4;;
68872;SDS011;55907;50.806;12.882;2023-07-30T01:08:26;718.8;;;650.4;;
68872;SDS011;55907;50.806;12.882;2023-07-30T01:11:27;730.6;;;660.9;;
68872;SDS011;55907;50.806;12.882;2023-07-30T01:14:29;736.6;;;666.3;;
68872;SDS011;55907;50.806;12.882;2023-07-30T01:17:30;747.0;;;676.0;;
68872;SDS011;55907;50.806;12.882;2023-07-30T01:20:32;750.8;;;678.7;;
68872;SDS011;55907;50.806;12.882;2023-07-30T01:23:33;736.4;;;664.1;;
68872;SDS011;55907;50.806;12.882;2023-07-30T01:26:37;722.7;;;649.4;;
68872;SDS011;55907;50.806;12.882;2023-07-30T01:29:38;708.7;;;636.5;;
68872;SDS011;55907;50.806;12.882;2023-07-30T01:32:38;700.8;;;629.7;;
68872;SDS011;55907;50.806;12.882;2023-07-30T01:35:39;698.4;;;628.4;;
68872;SDS011;55907;50.806;12.882;2023-07-30T01:38:40;696.6;;;627.4;;
68872;SDS011;55907;50.806;12.882;2023-07-30T01:41:42;703.1;;;634.2;;
68872;SDS011;55907;50.806;12.882;2023-07-30T01:44:43;687.1;;;619.6;;
68872;SDS011;55907;50.806;12.882;2023-07-30T01:47:45;665.7;;;600.1;;
68872;SDS011;55907;50.806;12.882;2023-07-30T01:50:46;661.7;;;596.7;;
68872;SDS011;55907;50.806;12.882;2023-07-30T01:53:48;654.1;;;590.0;;
68872;SDS011;55907;50.806;12.882;2023-07-30T01:56:49;636.4;;;574.4;;
68872;SDS011;55907;50.806;12.882;2023-07-30T01:59:51;619.5;;;559.3;;
68872;SDS011;55907;50.806;12.882;2023-07-30T02:02:52;616.5;;;557.1;;
68872;SDS011;55907;50.806;12.882;2023-07-30T02:05:53;608.4;;;550.6;;
68872;SDS011;55907;50.806;12.882;2023-07-30T02:08:55;610.0;;;553.2;;
68872;SDS011;55907;50.806;12.882;2023-07-30T02:11:56;595.6;;;541.0;;
68872;SDS011;55907;50.806;12.882;2023-07-30T02:14:58;570.7;;;519.6;;
68872;SDS011;55907;50.806;12.882;2023-07-30T02:17:59;548.1;;;500.0;;
68872;SDS011;55907;50.806;12.882;2023-07-30T02:21:01;545.2;;;498.7;;
68872;SDS011;55907;50.806;12.882;2023-07-30T02:24:02;520.4;;;477.5;;
68872;SDS011;55907;50.806;12.882;2023-07-30T02:27:04;499.4;;;458.6;;
68872;SDS011;55907;50.806;12.882;2023-07-30T02:30:06;495.5;;;456.0;;
68872;SDS011;55907;50.806;12.882;2023-07-30T02:33:06;512.6;;;472.4;;
68872;SDS011;55907;50.806;12.882;2023-07-30T02:36:08;483.7;;;446.5;;
68872;SDS011;55907;50.806;12.882;2023-07-30T02:39:09;476.2;;;439.7;;
68872;SDS011;55907;50.806;12.882;2023-07-30T02:42:11;484.3;;;447.2;;
68872;SDS011;55907;50.806;12.882;2023-07-30T02:45:12;476.9;;;440.1;;
68872;SDS011;55907;50.806;12.882;2023-07-30T02:48:14;475.0;;;438.6;;
68872;SDS011;55907;50.806;12.882;2023-07-30T02:51:15;477.3;;;440.9;;
68872;SDS011;55907;50.806;12.882;2023-07-30T02:54:16;490.8;;;453.1;;
68872;SDS011;55907;50.806;12.882;2023-07-30T02:57:18;507.7;;;468.0;;
68872;SDS011;55907;50.806;12.882;2023-07-30T03:00:19;546.5;;;502.7;;
68872;SDS011;55907;50.806;12.882;2023-07-30T03:03:21;608.4;;;559.2;;
68872;SDS011;55907;50.806;12.882;2023-07-30T03:06:22;657.6;;;603.8;;
68872;SDS011;55907;50.806;12.882;2023-07-30T03:09:24;713.9;;;654.1;;
68872;SDS011;55907;50.806;12.882;2023-07-30T03:12:25;740.8;;;677.6;;
68872;SDS011;55907;50.806;12.882;2023-07-30T03:15:27;755.8;;;689.8;;
68872;SDS011;55907;50.806;12.882;2023-07-30T03:18:28;785.2;;;714.7;;
68872;SDS011;55907;50.806;12.882;2023-07-30T03:21:29;781.6;;;710.6;;
68872;SDS011;55907;50.806;12.882;2023-07-30T03:24:31;794.9;;;721.4;;
68872;SDS011;55907;50.806;12.882;2023-07-30T03:27:32;801.3;;;725.3;;
68872;SDS011;55907;50.806;12.882;2023-07-30T03:30:34;810.6;;;732.6;;
68872;SDS011;55907;50.806;12.882;2023-07-30T03:33:36;826.9;;;745.6;;
68872;SDS011;55907;50.806;12.882;2023-07-30T03:36:37;830.9;;;748.7;;
68872;SDS011;55907;50.806;12.882;2023-07-30T03:39:38;843.6;;;759.9;;
68872;SDS011;55907;50.806;12.882;2023-07-30T03:42:40;859.5;;;774.0;;
68872;SDS011;55907;50.806;12.882;2023-07-30T03:45:41;873.3;;;786.0;;
68872;SDS011;55907;50.806;12.882;2023-07-30T03:48:42;873.9;;;787.5;;
68872;SDS011;55907;50.806;12.882;2023-07-30T03:51:44;881.3;;;794.7;;
68872;SDS011;55907;50.806;12.882;2023-07-30T03:54:45;893.8;;;804.8;;
68872;SDS011;55907;50.806;12.882;2023-07-30T03:57:47;889.9;;;801.7;;
68872;SDS011;55907;50.806;12.882;2023-07-30T04:00:48;873.8;;;787.0;;
68872;SDS011;55907;50.806;12.882;2023-07-30T04:03:50;851.0;;;767.6;;
68872;SDS011;55907;50.806;12.882;2023-07-30T04:06:51;810.3;;;732.6;;
68872;SDS011;55907;50.806;12.882;2023-07-30T04:09:53;784.4;;;710.3;;
68872;SDS011;55907;50.806;12.882;2023-07-30T04:12:54;778.8;;;705.5;;
68872;SDS011;55907;50.806;12.882;2023-07-30T04:15:55;789.5;;;714.4;;
68872;SDS011;55907;50.806;12.882;2023-07-30T04:18:57;807.7;;;730.7;;
68872;SDS011;55907;50.806;12.882;2023-07-30T04:21:58;817.5;;;740.0;;
68872;SDS011;55907;50.806;12.882;2023-07-30T04:25:00;824.6;;;746.6;;
68872;SDS011;55907;50.806;12.882;2023-07-30T04:28:01;823.8;;;746.1;;
68872;SDS011;55907;50.806;12.882;2023-07-30T04:31:03;824.3;;;747.0;;
68872;SDS011;55907;50.806;12.882;2023-07-30T04:34:04;821.2;;;744.2;;
68872;SDS011;55907;50.806;12.882;2023-07-30T04:37:06;814.7;;;738.3;;
68872;SDS011;55907;50.806;12.882;2023-07-30T04:40:08;811.1;;;735.1;;
68872;SDS011;55907;50.806;12.882;2023-07-30T04:43:09;799.8;;;725.0;;
68872;SDS011;55907;50.806;12.882;2023-07-30T04:46:10;795.4;;;721.1;;
68872;SDS011;55907;50.806;12.882;2023-07-30T04:49:11;779.7;;;706.7;;
68872;SDS011;55907;50.806;12.882;2023-07-30T04:52:13;766.4;;;695.4;;
68872;SDS011;55907;50.806;12.882;2023-07-30T04:55:14;755.2;;;685.8;;
68872;SDS011;55907;50.806;12.882;2023-07-30T04:58:16;732.5;;;665.7;;
68872;SDS011;55907;50.806;12.882;2023-07-30T05:01:17;720.4;;;655.3;;
68872;SDS011;55907;50.806;12.882;2023-07-30T05:04:19;703.3;;;640.0;;
68872;SDS011;55907;50.806;12.882;2023-07-30T05:07:20;697.6;;;635.3;;
68872;SDS011;55907;50.806;12.882;2023-07-30T05:10:21;695.8;;;634.4;;
68872;SDS011;55907;50.806;12.882;2023-07-30T05:13:23;684.3;;;624.9;;
68872;SDS011;55907;50.806;12.882;2023-07-30T05:16:24;674.0;;;617.3;;
68872;SDS011;55907;50.806;12.882;2023-07-30T05:19:26;644.4;;;591.7;;
68872;SDS011;55907;50.806;12.882;2023-07-30T05:22:27;611.5;;;563.3;;
68872;SDS011;55907;50.806;12.882;2023-07-30T05:25:29;588.8;;;544.2;;
68872;SDS011;55907;50.806;12.882;2023-07-30T05:28:30;559.1;;;517.6;;
68872;SDS011;55907;50.806;12.882;2023-07-30T05:31:31;537.6;;;499.3;;
68872;SDS011;55907;50.806;12.882;2023-07-30T05:34:33;506.1;;;470.6;;
68872;SDS011;55907;50.806;12.882;2023-07-30T05:37:34;469.7;;;437.8;;
68872;SDS011;55907;50.806;12.882;2023-07-30T05:40:36;460.8;;;429.4;;
68872;SDS011;55907;50.806;12.882;2023-07-30T05:43:37;428.4;;;399.0;;
68872;SDS011;55907;50.806;12.882;2023-07-30T05:46:38;404.4;;;376.1;;
68872;SDS011;55907;50.806;12.882;2023-07-30T05:49:40;390.3;;;362.6;;
68872;SDS011;55907;50.806;12.882;2023-07-30T05:52:41;381.1;;;354.4;;
68872;SDS011;55907;50.806;12.882;2023-07-30T05:55:43;383.1;;;356.5;;
68872;SDS011;55907;50.806;12.882;2023-07-30T05:58:44;391.6;;;364.6;;
68872;SDS011;55907;50.806;12.882;2023-07-30T06:01:45;382.8;;;356.5;;
68872;SDS011;55907;50.806;12.882;2023-07-30T06:04:47;384.6;;;358.6;;
68872;SDS011;55907;50.806;12.882;2023-07-30T06:07:48;397.6;;;370.9;;
68872;SDS011;55907;50.806;12.882;2023-07-30T06:10:50;417.8;;;390.9;;
68872;SDS011;55907;50.806;12.882;2023-07-30T06:13:51;463.1;;;434.2;;
68872;SDS011;55907;50.806;12.882;2023-07-30T06:16:53;506.8;;;475.4;;
68872;SDS011;55907;50.806;12.882;2023-07-30T06:19:54;574.4;;;538.0;;
68872;SDS011;55907;50.806;12.882;2023-07-30T06:22:55;596.2;;;556.1;;
68872;SDS011;55907;50.806;12.882;2023-07-30T06:25:57;610.4;;;566.7;;
68872;SDS011;55907;50.806;12.882;2023-07-30T06:28:58;664.0;;;615.7;;
68872;SDS011;55907;50.806;12.882;2023-07-30T06:32:00;726.7;;;672.2;;
68872;SDS011;55907;50.806;12.882;2023-07-30T06:35:01;761.0;;;702.7;;
68872;SDS011;55907;50.806;12.882;2023-07-30T06:38:02;764.0;;;701.9;;
68872;SDS011;55907;50.806;12.882;2023-07-30T06:41:04;758.6;;;694.0;;
68872;SDS011;55907;50.806;12.882;2023-07-30T06:44:05;744.1;;;678.2;;
68872;SDS011;55907;50.806;12.882;2023-07-30T06:47:07;765.4;;;694.1;;
68872;SDS011;55907;50.806;12.882;2023-07-30T06:50:08;804.6;;;727.2;;
68872;SDS011;55907;50.806;12.882;2023-07-30T06:53:09;812.9;;;733.8;;
68872;SDS011;55907;50.806;12.882;2023-07-30T06:56:11;854.0;;;771.2;;
68872;SDS011;55907;50.806;12.882;2023-07-30T06:59:12;862.0;;;778.4;;
68872;SDS011;55907;50.806;12.882;2023-07-30T07:02:13;876.3;;;789.1;;
68872;SDS011;55907;50.806;12.882;2023-07-30T07:05:15;880.7;;;792.6;;
68872;SDS011;55907;50.806;12.882;2023-07-30T07:08:16;874.2;;;785.9;;
68872;SDS011;55907;50.806;12.882;2023-07-30T07:11:18;891.5;;;801.0;;
68872;SDS011;55907;50.806;12.882;2023-07-30T07:14:19;876.8;;;788.0;;
68872;SDS011;55907;50.806;12.882;2023-07-30T07:17:20;857.2;;;774.8;;
68872;SDS011;55907;50.806;12.882;2023-07-30T07:20:22;800.0;;;726.7;;
68872;SDS011;55907;50.806;12.882;2023-07-30T07:23:23;789.6;;;718.9;;
68872;SDS011;55907;50.806;12.882;2023-07-30T07:26:25;797.9;;;725.9;;
68872;SDS011;55907;50.806;12.882;2023-07-30T07:29:26;804.1;;;729.6;;
68872;SDS011;55907;50.806;12.882;2023-07-30T07:32:28;817.5;;;740.5;;
68872;SDS011;55907;50.806;12.882;2023-07-30T07:35:29;820.2;;;742.0;;
68872;SDS011;55907;50.806;12.882;2023-07-30T07:38:31;831.7;;;751.7;;
68872;SDS011;55907;50.806;12.882;2023-07-30T07:41:32;827.8;;;749.3;;
68872;SDS011;55907;50.806;12.882;2023-07-30T07:44:33;819.6;;;741.4;;
68872;SDS011;55907;50.806;12.882;2023-07-30T07:47:34;827.4;;;747.9;;
68872;SDS011;55907;50.806;12.882;2023-07-30T07:50:36;839.8;;;757.6;;
68872;SDS011;55907;50.806;12.882;2023-07-30T07:53:37;848.9;;;764.4;;
68872;SDS011;55907;50.806;12.882;2023-07-30T07:56:38;853.0;;;766.0;;
68872;SDS011;55907;50.806;12.882;2023-07-30T07:59:40;845.0;;;757.8;;
68872;SDS011;55907;50.806;12.882;2023-07-30T08:02:41;817.4;;;731.2;;
68872;SDS011;55907;50.806;12.882;2023-07-30T08:05:43;806.3;;;720.9;;
68872;SDS011;55907;50.806;12.882;2023-07-30T08:08:44;817.3;;;731.3;;
68872;SDS011;55907;50.806;12.882;2023-07-30T08:11:45;885.6;;;793.4;;
68872;SDS011;55907;50.806;12.882;2023-07-30T08:14:47;946.8;;;849.8;;
68872;SDS011;55907;50.806;12.882;2023-07-30T08:17:48;1063.8;;;960.2;;
68872;SDS011;55907;50.806;12.882;2023-07-30T08:20:50;1102.4;;;999.9;;
68872;SDS011;55907;50.806;12.882;2023-07-30T08:23:51;1047.6;;;963.5;;
68872;SDS011;55907;50.806;12.882;2023-07-30T08:26:52;970.4;;;893.4;;
68872;SDS011;55907;50.806;12.882;2023-07-30T08:29:54;887.6;;;814.0;;
68872;SDS011;55907;50.806;12.882;2023-07-30T08:32:55;825.3;;;755.5;;
68872;SDS011;55907;50.806;12.882;2023-07-30T08:35:56;795.5;;;727.4;;
68872;SDS011;55907;50.806;12.882;2023-07-30T08:38:58;776.9;;;709.2;;
68872;SDS011;55907;50.806;12.882;2023-07-30T08:41:59;781.2;;;712.6;;
68872;SDS011;55907;50.806;12.882;2023-07-30T08:45:00;796.4;;;725.2;;
68872;SDS011;55907;50.806;12.882;2023-07-30T08:48:02;836.2;;;761.5;;
68872;SDS011;55907;50.806;12.882;2023-07-30T08:51:03;916.0;;;836.1;;
68872;SDS011;55907;50.806;12.882;2023-07-30T08:54:05;946.7;;;866.4;;
68872;SDS011;55907;50.806;12.882;2023-07-30T08:57:06;958.0;;;867.6;;
68872;SDS011;55907;50.806;12.882;2023-07-30T09:00:08;1081.5;;;973.2;;
68872;SDS011;55907;50.806;12.882;2023-07-30T09:03:09;1148.6;;;999.9;;
68872;SDS011;55907;50.806;12.882;2023-07-30T09:06:10;1260.0;;;999.9;;
68872;SDS011;55907;50.806;12.882;2023-07-30T09:09:11;1294.2;;;999.9;;
68872;SDS011;55907;50.806;12.882;2023-07-30T09:12:13;1386.3;;;999.9;;
68872;SDS011;55907;50.806;12.882;2023-07-30T09:15:14;1384.2;;;999.9;;
68872;SDS011;55907;50.806;12.882;2023-07-30T09:18:16;1363.4;;;999.9;;
68872;SDS011;55907;50.806;12.882;2023-07-30T09:21:17;1336.8;;;999.9;;
68872;SDS011;55907;50.806;12.882;2023-07-30T09:24:20;1237.5;;;989.9;;
68872;SDS011;55907;50.806;12.882;2023-07-30T09:27:20;1166.2;;;984.4;;
68872;SDS011;55907;50.806;12.882;2023-07-30T09:30:21;1115.4;;;969.2;;
68872;SDS011;55907;50.806;12.882;2023-07-30T09:33:22;1138.8;;;961.7;;
68872;SDS011;55907;50.806;12.882;2023-07-30T09:36:23;1138.6;;;948.4;;
68872;SDS011;55907;50.806;12.882;2023-07-30T09:39:25;1189.0;;;941.1;;
68872;SDS011;55907;50.806;12.882;2023-07-30T09:42:26;1200.0;;;927.1;;
68872;SDS011;55907;50.806;12.882;2023-07-30T09:45:27;1182.2;;;884.2;;
68872;SDS011;55907;50.806;12.882;2023-07-30T09:48:29;1053.4;;;866.4;;
68872;SDS011;55907;50.806;12.882;2023-07-30T09:51:30;991.5;;;876.0;;
68872;SDS011;55907;50.806;12.882;2023-07-30T09:54:32;988.8;;;890.9;;
68872;SDS011;55907;50.806;12.882;2023-07-30T09:57:33;977.2;;;891.6;;
68872;SDS011;55907;50.806;12.882;2023-07-30T10:00:34;922.7;;;847.3;;
68872;SDS011;55907;50.806;12.882;2023-07-30T10:03:35;916.9;;;843.3;;
68872;SDS011;55907;50.806;12.882;2023-07-30T10:06:38;1022.9;;;932.4;;
68872;SDS011;55907;50.806;12.882;2023-07-30T10:09:39;1473.8;;;999.9;;
68872;SDS011;55907;50.806;12.882;2023-07-30T10:12:40;1423.8;;;999.9;;
68872;SDS011;55907;50.806;12.882;2023-07-30T10:15:41;1366.6;;;999.9;;
68872;SDS011;55907;50.806;12.882;2023-07-30T10:18:43;1262.1;;;999.9;;
68872;SDS011;55907;50.806;12.882;2023-07-30T10:21:44;1238.4;;;999.9;;
68872;SDS011;55907;50.806;12.882;2023-07-30T10:24:55;1167.9;;;999.9;;
68872;SDS011;55907;50.806;12.882;2023-07-30T10:27:48;1143.0;;;999.9;;
68872;SDS011;55907;50.806;12.882;2023-07-30T10:30:54;1114.9;;;995.3;;
68872;SDS011;55907;50.806;12.882;2023-07-30T10:33:49;1101.6;;;983.0;;
68872;SDS011;55907;50.806;12.882;2023-07-30T10:36:50;1057.7;;;946.2;;
68872;SDS011;55907;50.806;12.882;2023-07-30T10:39:52;1031.6;;;924.8;;
68872;SDS011;55907;50.806;12.882;2023-07-30T10:42:53;1022.5;;;919.9;;
68872;SDS011;55907;50.806;12.882;2023-07-30T10:45:54;1001.2;;;902.8;;
68872;SDS011;55907;50.806;12.882;2023-07-30T10:48:56;1011.3;;;911.9;;
68872;SDS011;55907;50.806;12.882;2023-07-30T10:51:57;991.8;;;895.9;;
68872;SDS011;55907;50.806;12.882;2023-07-30T10:55:00;1003.8;;;908.3;;
68872;SDS011;55907;50.806;12.882;2023-07-30T10:58:00;1018.0;;;921.5;;
68872;SDS011;55907;50.806;12.882;2023-07-30T11:01:01;1040.3;;;942.5;;
68872;SDS011;55907;50.806;12.882;2023-07-30T11:04:05;1064.0;;;963.1;;
68872;SDS011;55907;50.806;12.882;2023-07-30T11:07:04;1081.7;;;978.4;;
68872;SDS011;55907;50.806;12.882;2023-07-30T11:10:05;1063.5;;;963.3;;
68872;SDS011;55907;50.806;12.882;2023-07-30T11:13:06;1040.7;;;944.7;;
68872;SDS011;55907;50.806;12.882;2023-07-30T11:16:08;1003.0;;;911.3;;
68872;SDS011;55907;50.806;12.882;2023-07-30T11:19:09;1007.6;;;915.3;;
68872;SDS011;55907;50.806;12.882;2023-07-30T11:22:11;1035.2;;;938.5;;
68872;SDS011;55907;50.806;12.882;2023-07-30T11:25:15;1045.0;;;945.6;;
68872;SDS011;55907;50.806;12.882;2023-07-30T11:28:13;1052.1;;;952.5;;
68872;SDS011;55907;50.806;12.882;2023-07-30T11:31:15;1043.7;;;944.9;;
68872;SDS011;55907;50.806;12.882;2023-07-30T11:34:16;1011.2;;;916.1;;
68872;SDS011;55907;50.806;12.882;2023-07-30T11:37:17;1023.3;;;924.9;;
68872;SDS011;55907;50.806;12.882;2023-07-30T11:40:20;1035.8;;;935.9;;
68872;SDS011;55907;50.806;12.882;2023-07-30T11:43:20;1030.4;;;931.1;;
68872;SDS011;55907;50.806;12.882;2023-07-30T11:46:21;973.8;;;882.4;;
68872;SDS011;55907;50.806;12.882;2023-07-30T11:49:23;933.9;;;846.1;;
68872;SDS011;55907;50.806;12.882;2023-07-30T11:52:24;905.9;;;820.1;;
68872;SDS011;55907;50.806;12.882;2023-07-30T11:55:27;909.1;;;822.3;;
68872;SDS011;55907;50.806;12.882;2023-07-30T11:58:28;905.2;;;818.6;;
68872;SDS011;55907;50.806;12.882;2023-07-30T12:01:29;882.2;;;798.2;;
68872;SDS011;55907;50.806;12.882;2023-07-30T12:04:30;867.8;;;785.7;;
68872;SDS011;55907;50.806;12.882;2023-07-30T12:07:32;857.6;;;777.0;;
68872;SDS011;55907;50.806;12.882;2023-07-30T12:10:40;845.2;;;765.7;;
68872;SDS011;55907;50.806;12.882;2023-07-30T12:13:34;846.3;;;765.5;;
68872;SDS011;55907;50.806;12.882;2023-07-30T12:16:35;862.2;;;778.0;;
68872;SDS011;55907;50.806;12.882;2023-07-30T12:19:36;855.5;;;772.6;;
68872;SDS011;55907;50.806;12.882;2023-07-30T12:22:38;864.1;;;777.0;;
68872;SDS011;55907;50.806;12.882;2023-07-30T12:25:39;875.4;;;786.6;;
68872;SDS011;55907;50.806;12.882;2023-07-30T12:28:40;877.6;;;790.0;;
68872;SDS011;55907;50.806;12.882;2023-07-30T12:31:42;884.8;;;793.4;;
68872;SDS011;55907;50.806;12.882;2023-07-30T12:34:43;918.1;;;819.6;;
68872;SDS011;55907;50.806;12.882;2023-07-30T12:37:44;930.1;;;830.1;;
68872;SDS011;55907;50.806;12.882;2023-07-30T12:40:46;943.2;;;840.4;;
68872;SDS011;55907;50.806;12.882;2023-07-30T12:43:47;987.2;;;860.6;;
68872;SDS011;55907;50.806;12.882;2023-07-30T12:46:48;968.1;;;861.1;;
68872;SDS011;55907;50.806;12.882;2023-07-30T12:49:50;989.0;;;866.6;;
68872;SDS011;55907;50.806;12.882;2023-07-30T12:52:51;973.3;;;861.7;;
68872;SDS011;55907;50.806;12.882;2023-07-30T12:55:52;960.9;;;854.9;;
68872;SDS011;55907;50.806;12.882;2023-07-30T12:58:54;955.3;;;852.0;;
68872;SDS011;55907;50.806;12.882;2023-07-30T13:01:55;959.5;;;855.0;;
68872;SDS011;55907;50.806;12.882;2023-07-30T13:04:56;951.6;;;846.7;;
68872;SDS011;55907;50.806;12.882;2023-07-30T13:07:58;948.2;;;843.3;;
68872;SDS011;55907;50.806;12.882;2023-07-30T13:10:59;935.3;;;832.0;;
68872;SDS011;55907;50.806;12.882;2023-07-30T13:14:01;906.2;;;807.1;;
68872;SDS011;55907;50.806;12.882;2023-07-30T13:17:02;895.4;;;798.4;;
68872;SDS011;55907;50.806;12.882;2023-07-30T13:20:04;885.0;;;788.9;;
68872;SDS011;55907;50.806;12.882;2023-07-30T13:23:05;867.5;;;774.8;;
68872;SDS011;55907;50.806;12.882;2023-07-30T13:26:06;866.4;;;774.6;;
68872;SDS011;55907;50.806;12.882;2023-07-30T13:29:07;871.6;;;780.2;;
68872;SDS011;55907;50.806;12.882;2023-07-30T13:32:09;867.7;;;775.8;;
68872;SDS011;55907;50.806;12.882;2023-07-30T13:35:10;869.8;;;777.1;;
68872;SDS011;55907;50.806;12.882;2023-07-30T13:38:11;860.2;;;768.3;;
68872;SDS011;55907;50.806;12.882;2023-07-30T13:41:13;864.6;;;771.8;;
68872;SDS011;55907;50.806;12.882;2023-07-30T13:44:14;861.5;;;768.5;;
68872;SDS011;55907;50.806;12.882;2023-07-30T13:47:15;852.2;;;759.0;;
68872;SDS011;55907;50.806;12.882;2023-07-30T13:50:17;820.2;;;733.0;;
68872;SDS011;55907;50.806;12.882;2023-07-30T13:53:18;787.4;;;706.5;;
68872;SDS011;55907;50.806;12.882;2023-07-30T13:56:19;770.3;;;682.7;;
68872;SDS011;55907;50.806;12.882;2023-07-30T13:59:21;946.9;;;846.0;;
68872;SDS011;55907;50.806;12.882;2023-07-30T14:02:22;965.5;;;876.3;;
68872;SDS011;55907;50.806;12.882;2023-07-30T14:05:24;978.1;;;877.0;;
68872;SDS011;55907;50.806;12.882;2023-07-30T14:08:25;1018.4;;;866.2;;
68872;SDS011;55907;50.806;12.882;2023-07-30T14:11:26;1165.4;;;931.6;;
68872;SDS011;55907;50.806;12.882;2023-07-30T14:14:28;1191.9;;;947.3;;
68872;SDS011;55907;50.806;12.882;2023-07-30T14:17:29;1150.3;;;999.9;;
68872;SDS011;55907;50.806;12.882;2023-07-30T14:20:31;1072.6;;;965.1;;
68872;SDS011;55907;50.806;12.882;2023-07-30T14:23:32;966.7;;;883.6;;
68872;SDS011;55907;50.806;12.882;2023-07-30T14:26:34;852.4;;;781.3;;
68872;SDS011;55907;50.806;12.882;2023-07-30T14:29:35;846.4;;;771.7;;
68872;SDS011;55907;50.806;12.882;2023-07-30T14:32:36;854.8;;;774.0;;
68872;SDS011;55907;50.806;12.882;2023-07-30T14:35:38;908.2;;;818.7;;
68872;SDS011;55907;50.806;12.882;2023-07-30T14:38:39;942.9;;;845.6;;
68872;SDS011;55907;50.806;12.882;2023-07-30T14:41:41;980.7;;;871.9;;
68872;SDS011;55907;50.806;12.882;2023-07-30T14:44:42;1049.7;;;908.9;;
68872;SDS011;55907;50.806;12.882;2023-07-30T14:47:43;1101.4;;;937.6;;
68872;SDS011;55907;50.806;12.882;2023-07-30T14:50:45;1140.6;;;962.2;;
68872;SDS011;55907;50.806;12.882;2023-07-30T14:53:46;1122.9;;;955.5;;
68872;SDS011;55907;50.806;12.882;2023-07-30T14:56:48;1106.7;;;958.5;;
68872;SDS011;55907;50.806;12.882;2023-07-30T14:59:49;1088.6;;;967.7;;
68872;SDS011;55907;50.806;12.882;2023-07-30T15:02:51;1079.5;;;960.9;;
68872;SDS011;55907;50.806;12.882;2023-07-30T15:05:52;1065.0;;;950.2;;
68872;SDS011;55907;50.806;12.882;2023-07-30T15:08:53;1047.1;;;936.0;;
68872;SDS011;55907;50.806;12.882;2023-07-30T15:11:55;1038.9;;;929.7;;
68872;SDS011;55907;50.806;12.882;2023-07-30T15:14:56;1011.7;;;907.7;;
68872;SDS011;55907;50.806;12.882;2023-07-30T15:17:58;978.4;;;877.8;;
68872;SDS011;55907;50.806;12.882;2023-07-30T15:20:59;954.9;;;858.8;;
68872;SDS011;55907;50.806;12.882;2023-07-30T15:24:00;906.1;;;818.3;;
68872;SDS011;55907;50.806;12.882;2023-07-30T15:27:02;855.6;;;773.4;;
68872;SDS011;55907;50.806;12.882;2023-07-30T15:30:04;823.1;;;743.7;;
68872;SDS011;55907;50.806;12.882;2023-07-30T15:33:08;791.0;;;713.9;;
68872;SDS011;55907;50.806;12.882;2023-07-30T15:36:06;777.6;;;702.7;;
68872;SDS011;55907;50.806;12.882;2023-07-30T15:39:08;774.9;;;700.9;;
68872;SDS011;55907;50.806;12.882;2023-07-30T15:42:09;763.9;;;692.7;;
68872;SDS011;55907;50.806;12.882;2023-07-30T15:45:10;745.2;;;678.5;;
68872;SDS011;55907;50.806;12.882;2023-07-30T15:48:12;698.8;;;639.0;;
68872;SDS011;55907;50.806;12.882;2023-07-30T15:51:13;698.5;;;639.9;;
68872;SDS011;55907;50.806;12.882;2023-07-30T15:54:15;715.0;;;656.1;;
68872;SDS011;55907;50.806;12.882;2023-07-30T15:57:16;745.5;;;685.9;;
68872;SDS011;55907;50.806;12.882;2023-07-30T16:00:17;779.2;;;718.4;;
68872;SDS011;55907;50.806;12.882;2023-07-30T16:03:19;832.3;;;767.8;;
68872;SDS011;55907;50.806;12.882;2023-07-30T16:06:22;885.1;;;816.9;;
68872;SDS011;55907;50.806;12.882;2023-07-30T16:09:22;903.9;;;834.4;;
68872;SDS011;55907;50.806;12.882;2023-07-30T16:12:23;880.1;;;812.4;;
68872;SDS011;55907;50.806;12.882;2023-07-30T16:15:25;852.6;;;787.6;;
68872;SDS011;55907;50.806;12.882;2023-07-30T16:18:26;809.0;;;746.9;;
68872;SDS011;55907;50.806;12.882;2023-07-30T16:21:27;808.4;;;745.3;;
68872;SDS011;55907;50.806;12.882;2023-07-30T16:24:29;829.6;;;764.4;;
68872;SDS011;55907;50.806;12.882;2023-07-30T16:27:30;826.9;;;761.0;;
68872;SDS011;55907;50.806;12.882;2023-07-30T16:30:32;819.9;;;753.7;;
68872;SDS011;55907;50.806;12.882;2023-07-30T16:33:33;815.1;;;749.4;;
68872;SDS011;55907;50.806;12.882;2023-07-30T16:36:34;829.6;;;762.5;;
68872;SDS011;55907;50.806;12.882;2023-07-30T16:39:36;825.6;;;760.3;;
68872;SDS011;55907;50.806;12.882;2023-07-30T16:42:37;827.9;;;763.5;;
68872;SDS011;55907;50.806;12.882;2023-07-30T16:45:39;843.2;;;776.7;;
68872;SDS011;55907;50.806;12.882;2023-07-30T16:48:40;885.3;;;813.1;;
68872;SDS011;55907;50.806;12.882;2023-07-30T16:51:42;955.3;;;873.3;;
68872;SDS011;55907;50.806;12.882;2023-07-30T16:54:43;980.2;;;896.4;;
68872;SDS011;55907;50.806;12.882;2023-07-30T16:57:44;986.9;;;902.7;;
68872;SDS011;55907;50.806;12.882;2023-07-30T17:00:46;1000.9;;;911.9;;
68872;SDS011;55907;50.806;12.882;2023-07-30T17:03:47;1009.1;;;919.0;;
68872;SDS011;55907;50.806;12.882;2023-07-30T17:06:49;1016.3;;;925.8;;
68872;SDS011;55907;50.806;12.882;2023-07-30T17:09:50;1026.0;;;932.5;;
68872;SDS011;55907;50.806;12.882;2023-07-30T17:12:51;1027.4;;;933.1;;
68872;SDS011;55907;50.806;12.882;2023-07-30T17:15:53;1054.2;;;951.0;;
68872;SDS011;55907;50.806;12.882;2023-07-30T17:18:54;1062.9;;;956.6;;
68872;SDS011;55907;50.806;12.882;2023-07-30T17:21:56;1074.9;;;964.2;;